Piper City, Illinois
Current Conditions -  °F | °C
As of 10:35 PM on Tuesday 21 Oct 2014 (Local Time) from KPNT Reporting Station
Overcast Overcast  
Wind Chill: 39°   Ceiling: 2800
Heat Index: 42°   Visibility: 10mi
Dew Point: 37°   Wind: 6mph
Humidity: 80%   Direction: 60°ENE
Pressure: 30.27"   Gusts: NA
Location:  40.76°N, 88.19°W
Report Text: KPNT 220335Z AUTO 06005KT 10SM OVC028 06/03 A3027 RMK AO2 T00580026
Loading
Personal Weather Stations






























Interactive Weather Map
Tropical Storm Tracking
New forecast layout! Learn more

10-Day Weather Forecast

Advertisements
Track Severe Weather on mobile